createdAt,value
2019-05-02T00:02:28.836Z,9.86
2019-05-02T00:04:59.114Z,9.80
2019-05-02T00:07:30.081Z,9.77
2019-05-02T00:10:01.896Z,9.76
2019-05-02T00:12:33.031Z,9.73
2019-05-02T00:15:03.979Z,9.71
2019-05-02T00:17:34.894Z,9.64
2019-05-02T00:20:07.711Z,9.58
2019-05-02T00:22:38.553Z,9.52
2019-05-02T00:25:10.990Z,9.49
2019-05-02T00:27:42.202Z,9.46
2019-05-02T00:30:14.899Z,9.43
2019-05-02T00:32:45.760Z,9.41
2019-05-02T00:35:16.741Z,9.44
2019-05-02T00:37:47.776Z,9.41
2019-05-02T00:40:20.159Z,9.35
2019-05-02T00:42:53.382Z,9.29
2019-05-02T00:45:27.476Z,9.24
2019-05-02T00:48:08.226Z,9.23
2019-05-02T00:50:40.766Z,9.21
2019-05-02T00:53:13.525Z,9.16
2019-05-02T00:55:44.704Z,9.11
2019-05-02T00:58:15.634Z,9.06
2019-05-02T01:01:05.562Z,9.02
2019-05-02T01:03:38.177Z,9.03
2019-05-02T01:06:13.625Z,8.98
2019-05-02T01:08:41.725Z,8.93
2019-05-02T01:11:12.709Z,8.90
2019-05-02T01:13:43.704Z,8.86
2019-05-02T01:16:15.262Z,8.82
2019-05-02T01:18:47.521Z,8.77
2019-05-02T01:21:18.449Z,8.72
2019-05-02T01:23:49.540Z,8.72
2019-05-02T01:26:24.204Z,8.67
2019-05-02T01:29:07.879Z,8.67
2019-05-02T01:32:00.105Z,8.64
2019-05-02T01:34:54.492Z,8.54
2019-05-02T01:37:51.003Z,8.56
2019-05-02T01:40:20.752Z,8.56
2019-05-02T01:42:53.089Z,8.49
2019-05-02T01:45:24.130Z,8.48
2019-05-02T01:47:55.211Z,8.43
2019-05-02T01:50:28.964Z,8.45
2019-05-02T01:53:00.204Z,8.41
2019-05-02T01:55:31.622Z,8.39
2019-05-02T01:58:02.879Z,8.39
2019-05-02T02:00:34.360Z,8.37
2019-05-02T02:03:09.121Z,8.34
2019-05-02T02:05:39.073Z,8.33
2019-05-02T02:08:10.060Z,8.34
2019-05-02T02:10:43.709Z,8.31
2019-05-02T02:13:13.782Z,8.30
2019-05-02T02:15:44.744Z,8.29
2019-05-02T02:18:17.065Z,8.24
2019-05-02T02:21:15.427Z,8.24
2019-05-02T02:24:09.235Z,8.23
2019-05-02T02:26:43.634Z,8.19
2019-05-02T02:29:13.046Z,8.17
2019-05-02T02:31:46.919Z,8.18
2019-05-02T02:34:21.403Z,8.16
2019-05-02T02:36:49.307Z,8.12
2019-05-02T02:39:20.449Z,8.09
2019-05-02T02:41:52.798Z,8.08
2019-05-02T02:44:47.006Z,8.09
2019-05-02T02:47:18.884Z,8.08
2019-05-02T02:49:55.955Z,8.09
2019-05-02T02:52:23.063Z,8.09
2019-05-02T02:54:54.079Z,8.14
2019-05-02T02:57:28.301Z,8.18
2019-05-02T03:00:07.311Z,8.23
2019-05-02T03:02:30.666Z,8.24
2019-05-02T03:05:04.850Z,8.26
2019-05-02T03:07:35.681Z,8.30
2019-05-02T03:10:09.721Z,8.33
2019-05-02T03:12:59.558Z,8.35
2019-05-02T03:15:32.961Z,8.36
2019-05-02T03:18:05.836Z,8.37
2019-05-02T03:20:40.889Z,8.38
2019-05-02T03:23:15.277Z,8.41
2019-05-02T03:25:50.315Z,8.43
2019-05-02T03:28:34.770Z,8.41
2019-05-02T03:31:21.641Z,8.39
2019-05-02T03:33:54.830Z,8.40
2019-05-02T03:36:28.022Z,8.43
2019-05-02T03:38:45.532Z,8.51
2019-05-02T03:41:20.812Z,8.52
2019-05-02T03:43:49.945Z,8.51
2019-05-02T03:46:22.696Z,8.57
2019-05-02T03:49:05.534Z,8.57
2019-05-02T03:51:26.457Z,8.63
2019-05-02T03:54:06.448Z,8.67
2019-05-02T03:56:30.297Z,8.73
2019-05-02T03:59:01.289Z,8.69
2019-05-02T04:01:34.659Z,8.76
2019-05-02T04:04:06.733Z,8.77
2019-05-02T04:06:37.969Z,8.83
2019-05-02T04:09:11.192Z,8.90
2019-05-02T04:11:42.233Z,8.91
2019-05-02T04:14:17.469Z,8.90
2019-05-02T04:16:48.595Z,8.89
2019-05-02T04:19:18.675Z,8.77
2019-05-02T04:21:52.665Z,8.89
2019-05-02T04:24:22.299Z,8.95
2019-05-02T04:26:56.163Z,8.88
2019-05-02T04:29:31.196Z,8.99
2019-05-02T04:32:04.136Z,9.09
2019-05-02T04:34:31.437Z,9.15
2019-05-02T04:37:04.046Z,9.11
2019-05-02T04:39:35.106Z,9.10
2019-05-02T04:42:12.953Z,9.17
2019-05-02T04:45:00.020Z,9.18
2019-05-02T04:47:17.692Z,9.27
2019-05-02T04:49:49.079Z,9.27
2019-05-02T04:52:25.128Z,9.28
2019-05-02T04:55:07.991Z,9.31
2019-05-02T04:57:36.937Z,9.34
2019-05-02T05:00:06.298Z,9.36
2019-05-02T05:02:36.462Z,9.43
2019-05-02T05:05:08.428Z,9.45
2019-05-02T05:07:44.475Z,9.50
2019-05-02T05:10:12.506Z,9.54
2019-05-02T05:12:43.555Z,9.56
2019-05-02T05:15:33.299Z,9.60
2019-05-02T05:17:47.928Z,9.57
2019-05-02T05:20:19.865Z,9.61
2019-05-02T05:22:50.811Z,9.61
2019-05-02T05:25:27.832Z,9.72
2019-05-02T05:28:05.672Z,9.66
2019-05-02T05:30:31.538Z,9.72
2019-05-02T05:33:02.482Z,9.77
2019-05-02T05:35:33.471Z,9.74
2019-05-02T05:38:08.661Z,9.77
2019-05-02T05:40:40.154Z,9.78
2019-05-02T05:43:15.634Z,9.58
2019-05-02T05:45:53.375Z,9.64
2019-05-02T05:48:18.398Z,9.72
2019-05-02T05:50:49.490Z,9.43
2019-05-02T05:53:21.435Z,9.34
2019-05-02T05:55:53.668Z,9.33
2019-05-02T05:58:25.760Z,9.26
2019-05-02T06:00:58.409Z,9.13
2019-05-02T06:03:29.288Z,9.15
2019-05-02T06:06:00.204Z,9.14
2019-05-02T06:08:31.091Z,9.30
2019-05-02T06:11:02.033Z,9.29
2019-05-02T06:13:33.017Z,9.42
2019-05-02T06:16:03.908Z,9.47
2019-05-02T06:18:36.265Z,9.54
2019-05-02T06:21:08.806Z,9.49
2019-05-02T06:23:41.580Z,9.56
2019-05-02T06:26:15.565Z,9.59
2019-05-02T06:28:46.864Z,9.82
2019-05-02T06:31:17.691Z,9.93
2019-05-02T06:33:48.710Z,9.97
2019-05-02T06:36:19.786Z,9.91
2019-05-02T06:38:52.151Z,10.02
2019-05-02T06:41:23.564Z,10.05
2019-05-02T06:43:54.569Z,10.05
2019-05-02T06:46:27.793Z,10.10
2019-05-02T06:48:58.131Z,10.04
2019-05-02T06:51:29.198Z,10.05
2019-05-02T06:54:00.181Z,9.93
2019-05-02T06:56:31.001Z,10.00
2019-05-02T06:59:04.459Z,9.89
2019-05-02T07:01:35.870Z,9.99
2019-05-02T07:04:08.074Z,10.03
2019-05-02T07:06:50.050Z,10.15
2019-05-02T07:09:11.782Z,10.33
2019-05-02T07:11:56.393Z,10.32
2019-05-02T07:14:23.404Z,10.30
2019-05-02T07:17:19.873Z,10.10
2019-05-02T07:19:54.116Z,10.17
2019-05-02T07:22:25.392Z,10.27
2019-05-02T07:24:56.454Z,10.20
2019-05-02T07:27:28.340Z,10.28
2019-05-02T07:30:00.031Z,10.28
2019-05-02T07:32:31.095Z,10.23
2019-05-02T07:35:02.138Z,10.22
2019-05-02T07:37:33.109Z,10.43
2019-05-02T07:40:04.175Z,10.50
2019-05-02T07:42:36.867Z,10.63
2019-05-02T07:45:09.469Z,10.66
2019-05-02T07:47:42.366Z,10.67
2019-05-02T07:50:13.408Z,10.53
2019-05-02T07:52:44.602Z,10.66
2019-05-02T07:55:15.908Z,10.69
2019-05-02T07:57:47.188Z,10.75
2019-05-02T08:00:20.287Z,10.80
2019-05-02T08:02:51.228Z,10.91
2019-05-02T08:05:23.872Z,10.87
2019-05-02T08:07:55.326Z,10.90
2019-05-02T08:10:26.346Z,11.06
2019-05-02T08:12:57.271Z,10.85
2019-05-02T08:15:28.098Z,11.06
2019-05-02T08:17:59.184Z,11.06
2019-05-02T08:20:30.122Z,11.18
2019-05-02T08:23:00.999Z,11.06
2019-05-02T08:25:31.858Z,11.28
2019-05-02T08:28:15.430Z,11.50
2019-05-02T08:30:52.938Z,11.62
2019-05-02T08:33:29.460Z,11.72
2019-05-02T08:35:58.049Z,12.02
2019-05-02T08:38:29.130Z,12.07
2019-05-02T08:41:00.039Z,11.95
2019-05-02T08:43:31.158Z,12.23
2019-05-02T08:46:02.750Z,12.37
2019-05-02T08:48:36.527Z,12.38
2019-05-02T08:51:06.176Z,12.57
2019-05-02T08:53:37.194Z,12.87
2019-05-02T08:56:08.095Z,12.98
2019-05-02T08:58:39.055Z,13.00
2019-05-02T09:01:13.820Z,12.94
2019-05-02T09:03:54.852Z,12.67
2019-05-02T09:06:17.193Z,12.83
2019-05-02T09:08:51.446Z,12.73
2019-05-02T09:11:22.084Z,12.96
2019-05-02T09:13:53.138Z,13.01
2019-05-02T09:16:28.612Z,13.24
2019-05-02T09:18:57.204Z,13.33
2019-05-02T09:21:34.311Z,13.32
2019-05-02T09:24:02.496Z,13.37
2019-05-02T09:26:38.515Z,13.44
2019-05-02T09:29:06.423Z,14.00
2019-05-02T09:31:42.342Z,14.37
2019-05-02T09:34:11.755Z,14.51
2019-05-02T09:36:42.626Z,14.81
2019-05-02T09:39:13.557Z,15.23
2019-05-02T09:41:44.533Z,15.44
2019-05-02T09:44:18.756Z,14.97
2019-05-02T09:46:54.268Z,14.58
2019-05-02T09:49:22.029Z,14.39
2019-05-02T09:51:59.652Z,14.62
2019-05-02T09:54:29.034Z,14.76
2019-05-02T09:56:59.924Z,14.28
2019-05-02T09:59:33.683Z,14.50
2019-05-02T10:02:07.216Z,14.48
2019-05-02T10:04:41.345Z,14.97
2019-05-02T10:07:12.115Z,15.12
2019-05-02T10:09:43.697Z,15.10
2019-05-02T10:12:16.659Z,15.32
2019-05-02T10:14:47.645Z,15.33
2019-05-02T10:17:18.622Z,14.86
2019-05-02T10:19:56.558Z,15.20
2019-05-02T10:22:26.315Z,15.08
2019-05-02T10:24:56.062Z,15.49
2019-05-02T10:27:27.238Z,16.03
2019-05-02T10:30:08.403Z,16.02
2019-05-02T10:32:32.439Z,15.50
2019-05-02T10:35:03.736Z,15.68
2019-05-02T10:37:38.340Z,15.57
2019-05-02T10:40:07.761Z,15.56
2019-05-02T10:42:41.933Z,15.63
2019-05-02T10:45:16.688Z,15.56
2019-05-02T10:47:45.870Z,15.65
2019-05-02T10:50:22.503Z,15.92
2019-05-02T10:52:53.787Z,15.62
2019-05-02T10:55:25.862Z,15.85
2019-05-02T10:57:56.848Z,15.82
2019-05-02T11:00:34.236Z,15.66
2019-05-02T11:03:25.478Z,16.08
2019-05-02T11:06:05.556Z,15.56
2019-05-02T11:08:32.185Z,15.58
2019-05-02T11:11:05.943Z,15.86
2019-05-02T11:13:46.619Z,16.18
2019-05-02T11:16:25.229Z,16.66
2019-05-02T11:19:02.303Z,16.60
2019-05-02T11:21:46.767Z,16.78
2019-05-02T11:24:13.793Z,17.14
2019-05-02T11:26:44.124Z,17.50
2019-05-02T11:29:18.523Z,17.53
2019-05-02T11:31:49.467Z,17.42
2019-05-02T11:34:22.126Z,16.59
2019-05-02T11:36:53.728Z,16.91
2019-05-02T11:39:33.067Z,17.20
2019-05-02T11:41:58.769Z,17.05
2019-05-02T11:44:29.872Z,17.26
2019-05-02T11:47:02.019Z,17.51
2019-05-02T11:49:33.397Z,17.58
2019-05-02T11:52:04.742Z,17.72
2019-05-02T11:54:39.162Z,17.69
2019-05-02T11:57:08.628Z,17.63
2019-05-02T11:59:39.722Z,17.52
2019-05-02T12:02:32.531Z,17.72
2019-05-02T12:05:03.664Z,17.77
2019-05-02T12:07:34.578Z,17.38
2019-05-02T12:10:06.768Z,17.13
2019-05-02T12:12:37.863Z,17.21
2019-05-02T12:15:09.031Z,17.65
2019-05-02T12:17:41.878Z,17.80
2019-05-02T12:20:12.816Z,17.21
2019-05-02T12:22:43.891Z,17.43
2019-05-02T12:25:14.905Z,17.10
2019-05-02T12:27:45.899Z,17.53
2019-05-02T12:30:16.750Z,17.93
2019-05-02T12:32:50.585Z,17.97
2019-05-02T12:35:43.022Z,18.37
2019-05-02T12:38:13.618Z,18.29
2019-05-02T12:40:44.808Z,18.47
2019-05-02T12:43:15.700Z,18.59
2019-05-02T12:45:46.638Z,19.05
2019-05-02T12:48:17.635Z,19.08
2019-05-02T12:50:48.671Z,19.12
2019-05-02T12:53:21.866Z,19.44
2019-05-02T12:55:52.893Z,19.51
2019-05-02T12:58:23.881Z,19.49
2019-05-02T13:00:54.839Z,19.53
2019-05-02T13:03:48.889Z,19.84
2019-05-02T13:06:21.813Z,19.28
2019-05-02T13:08:52.834Z,18.63
2019-05-02T13:11:32.186Z,19.23
2019-05-02T13:14:03.987Z,18.90
2019-05-02T13:16:35.070Z,19.00
2019-05-02T13:19:06.475Z,18.73
2019-05-02T13:21:50.373Z,18.20
2019-05-02T13:24:29.401Z,17.85
2019-05-02T13:27:04.376Z,18.31
2019-05-02T13:29:35.308Z,18.67
2019-05-02T13:32:21.808Z,18.52
2019-05-02T13:35:12.840Z,18.57
2019-05-02T13:37:44.814Z,18.31
2019-05-02T13:40:32.085Z,18.88
2019-05-02T13:43:05.488Z,18.64
2019-05-02T13:45:52.718Z,18.37
2019-05-02T13:48:24.013Z,18.13
2019-05-02T13:50:57.502Z,18.15
2019-05-02T13:53:28.748Z,18.66
2019-05-02T13:56:17.620Z,18.80
2019-05-02T13:58:51.926Z,18.42
2019-05-02T14:01:23.135Z,17.84
2019-05-02T14:03:55.819Z,17.84
2019-05-02T14:06:29.875Z,17.72
2019-05-02T14:09:08.007Z,17.81
2019-05-02T14:12:03.763Z,17.73
2019-05-02T14:14:34.923Z,18.11
2019-05-02T14:17:08.148Z,18.05
2019-05-02T14:19:39.076Z,18.27
2019-05-02T14:22:10.138Z,17.91
2019-05-02T14:24:42.164Z,17.79
2019-05-02T14:27:17.184Z,17.85
2019-05-02T14:29:47.558Z,17.95
2019-05-02T14:32:23.748Z,17.80
2019-05-02T14:35:13.069Z,17.76
2019-05-02T14:37:44.486Z,17.49
2019-05-02T14:40:22.575Z,17.72
2019-05-02T14:42:57.779Z,17.83
2019-05-02T14:45:30.707Z,17.76
2019-05-02T14:48:17.748Z,17.60
2019-05-02T14:50:36.541Z,17.76
2019-05-02T14:53:06.611Z,17.43
2019-05-02T14:55:42.100Z,16.99
2019-05-02T14:58:15.920Z,17.27
2019-05-02T15:00:53.736Z,17.16
2019-05-02T15:03:28.423Z,16.96
2019-05-02T15:05:59.029Z,16.96
2019-05-02T15:08:32.123Z,17.14
2019-05-02T15:11:03.571Z,17.12
2019-05-02T15:13:39.908Z,16.90
2019-05-02T15:16:17.053Z,16.43
2019-05-02T15:18:42.003Z,16.11
2019-05-02T15:21:22.345Z,16.06
2019-05-02T15:23:54.370Z,16.22
2019-05-02T15:26:26.380Z,15.89
2019-05-02T15:28:58.556Z,15.48
2019-05-02T15:31:34.216Z,15.17
2019-05-02T15:34:20.247Z,15.12
2019-05-02T15:36:52.661Z,15.19
2019-05-02T15:41:56.385Z,15.00
2019-05-02T15:44:27.368Z,14.82
2019-05-02T15:47:02.923Z,14.89
2019-05-02T15:49:41.723Z,14.95
2019-05-02T15:52:13.524Z,14.86
2019-05-02T15:54:44.602Z,14.91
2019-05-02T15:57:20.498Z,14.90
2019-05-02T15:59:48.510Z,14.80
2019-05-02T16:02:22.946Z,14.78
2019-05-02T16:04:57.153Z,14.80
2019-05-02T16:07:29.047Z,14.85
2019-05-02T16:10:01.400Z,14.90
2019-05-02T16:12:35.942Z,14.95
2019-05-02T16:15:27.524Z,14.88
2019-05-02T16:17:47.535Z,15.07
2019-05-02T16:20:26.508Z,15.13
2019-05-02T16:22:57.485Z,15.15
2019-05-02T16:25:28.486Z,15.09
2019-05-02T16:28:05.884Z,15.13
2019-05-02T16:30:37.045Z,15.03
2019-05-02T16:33:18.878Z,14.89
2019-05-02T16:35:46.312Z,14.80
2019-05-02T16:38:15.778Z,14.87
2019-05-02T16:40:46.816Z,14.61
2019-05-02T16:43:17.800Z,14.52
2019-05-02T16:45:48.833Z,14.41
2019-05-02T16:48:19.884Z,14.48
2019-05-02T16:50:50.785Z,14.24
2019-05-02T16:53:24.986Z,14.11
2019-05-02T16:55:58.346Z,14.03
2019-05-02T16:58:27.603Z,13.96
2019-05-02T17:00:59.228Z,13.95
2019-05-02T17:03:31.747Z,13.69
2019-05-02T17:06:02.844Z,13.56
2019-05-02T17:08:57.162Z,13.64
2019-05-02T17:11:31.797Z,13.52
2019-05-02T17:14:02.165Z,13.49
2019-05-02T17:16:33.213Z,13.40
2019-05-02T17:19:04.290Z,13.42
2019-05-02T17:21:52.262Z,13.44
2019-05-02T17:24:08.044Z,13.57
2019-05-02T17:26:39.835Z,13.38
2019-05-02T17:29:16.548Z,13.44
2019-05-02T17:31:50.037Z,13.48
2019-05-02T17:34:24.452Z,13.41
2019-05-02T17:36:51.995Z,13.33
2019-05-02T17:39:23.131Z,13.30
2019-05-02T17:41:54.113Z,13.31
2019-05-02T17:44:24.966Z,13.42
2019-05-02T17:46:58.427Z,13.50
2019-05-02T17:49:36.872Z,13.56
2019-05-02T17:52:27.018Z,13.59
2019-05-02T17:55:01.707Z,13.63
2019-05-02T17:57:33.460Z,13.47
2019-05-02T18:00:07.499Z,13.50
2019-05-02T18:02:37.755Z,13.58
2019-05-02T18:05:08.681Z,13.60
2019-05-02T18:07:41.828Z,13.53
2019-05-02T18:10:20.566Z,13.48
2019-05-02T18:13:00.062Z,13.39
2019-05-02T18:15:48.118Z,13.36
2019-05-02T18:18:19.129Z,13.28
2019-05-02T18:20:59.533Z,13.30
2019-05-02T18:23:32.268Z,13.31
2019-05-02T18:26:06.231Z,13.25
2019-05-02T18:28:46.055Z,13.21
2019-05-02T18:31:09.035Z,13.26
2019-05-02T18:33:41.019Z,13.19
2019-05-02T18:36:17.452Z,13.10
2019-05-02T18:38:45.994Z,13.14
2019-05-02T18:41:17.026Z,13.02
2019-05-02T18:43:48.069Z,12.93
2019-05-02T18:46:20.051Z,12.97
2019-05-02T18:48:52.900Z,12.84
2019-05-02T18:51:24.133Z,12.92
2019-05-02T18:53:58.151Z,12.87
2019-05-02T18:56:28.184Z,12.86
2019-05-02T18:58:59.520Z,12.93
2019-05-02T19:01:32.002Z,12.89
2019-05-02T19:04:03.513Z,12.87
2019-05-02T19:06:36.161Z,12.80
2019-05-02T19:09:51.142Z,12.73
2019-05-02T19:12:22.439Z,12.68
2019-05-02T19:14:57.414Z,12.64
2019-05-02T19:17:25.633Z,12.46
2019-05-02T19:19:56.441Z,12.42
2019-05-02T19:22:27.395Z,12.39
2019-05-02T19:25:01.152Z,12.40
2019-05-02T19:27:57.666Z,12.46
2019-05-02T19:30:30.141Z,12.53
2019-05-02T19:33:03.646Z,12.55
2019-05-02T19:35:37.552Z,12.60
2019-05-02T19:38:06.752Z,12.53
2019-05-02T19:40:37.651Z,12.59
2019-05-02T19:43:08.612Z,12.61
2019-05-02T19:45:39.621Z,12.62
2019-05-02T19:48:12.360Z,12.56
2019-05-02T19:50:44.034Z,12.57
2019-05-02T19:53:18.509Z,12.52
2019-05-02T19:55:48.840Z,12.58
2019-05-02T19:58:19.775Z,12.63
2019-05-02T20:00:52.625Z,12.60
2019-05-02T20:03:26.093Z,12.44
2019-05-02T20:06:01.636Z,12.33
2019-05-02T20:08:29.574Z,12.37
2019-05-02T20:11:02.152Z,12.45
2019-05-02T20:13:33.443Z,12.52
2019-05-02T20:16:11.986Z,12.50
2019-05-02T20:18:47.118Z,12.63
2019-05-02T20:21:27.731Z,12.75
2019-05-02T20:23:56.875Z,12.77
2019-05-02T20:26:27.900Z,12.64
2019-05-02T20:28:58.801Z,12.34
2019-05-02T20:31:29.830Z,12.19
2019-05-02T20:34:02.557Z,12.27
2019-05-02T20:36:33.536Z,12.24
2019-05-02T20:39:07.877Z,12.16
2019-05-02T20:41:39.137Z,12.13
2019-05-02T20:44:12.027Z,12.09
2019-05-02T20:46:42.900Z,12.05
2019-05-02T20:49:13.937Z,12.00
2019-05-02T20:51:44.980Z,11.82
2019-05-02T20:54:16.009Z,11.79
2019-05-02T20:56:49.424Z,11.85
2019-05-02T20:59:21.868Z,11.83
2019-05-02T21:01:53.131Z,11.87
2019-05-02T21:04:26.306Z,11.75
2019-05-02T21:07:21.781Z,11.67
2019-05-02T21:10:21.901Z,11.71
2019-05-02T21:13:01.946Z,11.59
2019-05-02T21:15:32.672Z,11.42
2019-05-02T21:18:03.660Z,11.37
2019-05-02T21:20:34.666Z,11.33
2019-05-02T21:23:06.165Z,11.25
2019-05-02T21:25:37.110Z,11.03
2019-05-02T21:28:08.178Z,10.82
2019-05-02T21:30:39.045Z,10.72
2019-05-02T21:33:39.044Z,10.79
2019-05-02T21:36:11.804Z,10.69
2019-05-02T21:38:42.914Z,10.64
2019-05-02T21:41:14.143Z,10.53
2019-05-02T21:43:46.931Z,10.50
2019-05-02T21:46:17.901Z,10.57
2019-05-02T21:48:49.028Z,10.36
2019-05-02T21:51:27.632Z,10.45
2019-05-02T21:54:06.868Z,10.49
2019-05-02T21:56:47.194Z,10.47
2019-05-02T21:59:18.218Z,10.45
2019-05-02T22:01:59.443Z,10.40
2019-05-02T22:04:31.748Z,10.32
2019-05-02T22:07:03.012Z,10.36
2019-05-02T22:09:34.457Z,10.15
2019-05-02T22:12:06.269Z,10.19
2019-05-02T22:14:37.120Z,10.12
2019-05-02T22:17:08.094Z,10.05
2019-05-02T22:19:39.023Z,9.90
2019-05-02T22:22:09.963Z,9.90
2019-05-02T22:24:42.172Z,9.93
2019-05-02T22:27:13.219Z,10.02
2019-05-02T22:29:44.040Z,9.88
2019-05-02T22:32:15.153Z,9.86
2019-05-02T22:34:46.011Z,9.88
2019-05-02T22:37:18.365Z,9.93
2019-05-02T22:39:56.844Z,10.00
2019-05-02T22:42:27.922Z,10.07
2019-05-02T22:44:58.951Z,10.10
2019-05-02T22:47:32.024Z,10.14
2019-05-02T22:50:02.545Z,10.18
2019-05-02T22:52:33.454Z,10.08
2019-05-02T22:55:04.577Z,10.18
2019-05-02T22:57:35.494Z,10.19
2019-05-02T23:00:07.338Z,10.24
2019-05-02T23:02:38.448Z,10.25
2019-05-02T23:05:09.544Z,10.31
2019-05-02T23:07:41.905Z,10.31
2019-05-02T23:10:13.148Z,10.25
2019-05-02T23:12:43.995Z,10.27
2019-05-02T23:15:14.849Z,10.26
2019-05-02T23:17:45.868Z,10.33
2019-05-02T23:20:16.819Z,10.35
2019-05-02T23:22:47.764Z,10.33
2019-05-02T23:25:35.641Z,10.29
2019-05-02T23:28:11.941Z,10.27
2019-05-02T23:30:42.979Z,10.13
2019-05-02T23:33:13.899Z,10.20
2019-05-02T23:35:44.874Z,10.28
2019-05-02T23:38:15.809Z,10.33
2019-05-02T23:40:46.758Z,10.29
2019-05-02T23:43:17.756Z,10.28
2019-05-02T23:45:48.677Z,10.32
2019-05-02T23:48:19.567Z,10.31
2019-05-02T23:50:52.059Z,10.35
2019-05-02T23:53:23.224Z,10.37
2019-05-02T23:55:54.350Z,10.35
2019-05-02T23:58:26.943Z,10.37
